Time;durP1;ratioP1;P1;durP2;ratioP2;P2;SDS_P1;SDS_P2;PMS_P1;PMS_P2;Temp;Humidity;BMP_temperature;BMP_pressure;BME280_temperature;BME280_humidity;BME280_pressure;Samples;Min_cycle;Max_cycle;Signal;HPM_P1;HPM_P2
2022/10/22 00:00:13;;;;;;;22.60;13.30;;;11.60;99.90;;;;;;4958472;28;20042;-81
2022/10/22 00:02:40;;;;;;;21.23;13.73;;;11.50;99.90;;;;;;5003209;28;20154;-81
2022/10/22 00:05:06;;;;;;;24.33;13.50;;;11.50;99.90;;;;;;4990609;28;20034;-82
2022/10/22 00:07:32;;;;;;;20.13;13.10;;;11.50;99.90;;;;;;4975804;28;20137;-83
2022/10/22 00:09:58;;;;;;;21.70;13.40;;;11.60;99.90;;;;;;4958347;28;20070;-82
2022/10/22 00:12:24;;;;;;;23.17;13.20;;;11.60;99.90;;;;;;5008356;28;20034;-84
2022/10/22 00:14:50;;;;;;;24.05;13.68;;;11.60;99.90;;;;;;4990264;28;20566;-83
2022/10/22 00:17:16;;;;;;;21.30;12.88;;;11.50;99.90;;;;;;4972373;28;20133;-83
2022/10/22 00:19:42;;;;;;;18.63;12.00;;;11.50;99.90;;;;;;4989702;28;20133;-83
2022/10/22 00:22:08;;;;;;;20.15;12.73;;;11.50;99.90;;;;;;4989394;28;20130;-83
2022/10/22 00:24:36;;;;;;;18.80;12.00;;;11.50;99.90;;;;;;5005707;28;20045;-84
2022/10/22 00:27:02;;;;;;;22.73;12.13;;;11.50;99.90;;;;;;4987627;28;20042;-82
2022/10/22 00:29:28;;;;;;;20.73;12.25;;;11.50;99.90;;;;;;4990148;28;20110;-82
2022/10/22 00:31:54;;;;;;;19.85;12.40;;;11.60;99.90;;;;;;4990838;28;20664;-82
2022/10/22 00:34:21;;;;;;;20.30;12.38;;;11.60;99.90;;;;;;4988577;28;20129;-83
2022/10/22 00:36:49;;;;;;;19.23;11.60;;;11.60;99.90;;;;;;4990164;28;20464;-83
2022/10/22 00:39:16;;;;;;;16.23;11.52;;;11.60;99.90;;;;;;4991293;28;20030;-83
2022/10/22 00:41:44;;;;;;;17.65;12.23;;;11.60;99.90;;;;;;4961904;28;20038;-82
2022/10/22 00:44:48;;;;;;;22.05;11.85;;;11.70;99.90;;;;;;5005589;28;20038;-82
2022/10/22 00:47:15;;;;;;;21.70;12.40;;;11.70;99.90;;;;;;4998064;28;20034;-83
2022/10/22 00:49:41;;;;;;;19.85;11.77;;;11.70;99.90;;;;;;4990140;28;20040;-84
2022/10/22 00:52:08;;;;;;;19.33;11.70;;;11.70;99.90;;;;;;4974685;28;20037;-83
2022/10/22 00:54:34;;;;;;;23.50;14.10;;;11.70;99.90;;;;;;4973272;28;20643;-84
2022/10/22 00:57:00;;;;;;;18.83;12.05;;;11.70;99.90;;;;;;4973539;28;20074;-83
2022/10/22 00:59:28;;;;;;;16.75;10.80;;;11.70;99.90;;;;;;4971064;28;20050;-83
2022/10/22 01:01:56;;;;;;;18.02;11.30;;;11.60;99.90;;;;;;4972237;28;20058;-83
2022/10/22 01:04:22;;;;;;;15.73;11.95;;;11.70;99.90;;;;;;4988631;28;20105;-84
2022/10/22 01:06:48;;;;;;;17.40;11.25;;;11.70;99.90;;;;;;4964439;28;20042;-83
2022/10/22 01:09:20;;;;;;;18.95;11.13;;;11.70;99.90;;;;;;4995487;28;20046;-83
2022/10/22 01:11:51;;;;;;;17.27;11.30;;;11.70;99.90;;;;;;4988496;28;20030;-83
2022/10/22 01:14:35;;;;;;;18.63;11.10;;;11.70;99.90;;;;;;5004529;28;20125;-82
2022/10/22 01:17:31;;;;;;;17.25;11.50;;;11.70;99.90;;;;;;5005469;28;20042;-82
2022/10/22 01:20:15;;;;;;;19.15;11.93;;;11.70;99.90;;;;;;4989058;28;20073;-82
2022/10/22 01:23:01;;;;;;;17.58;10.73;;;11.70;99.90;;;;;;4974150;28;20046;-83
2022/10/22 01:25:27;;;;;;;20.80;12.20;;;11.70;99.90;;;;;;4988748;28;20038;-84
2022/10/22 01:28:14;;;;;;;20.85;11.05;;;11.70;99.90;;;;;;5001197;28;20038;-83
2022/10/22 01:30:41;;;;;;;18.00;11.40;;;11.70;99.90;;;;;;4993083;28;20145;-82
2022/10/22 01:33:12;;;;;;;15.65;10.93;;;11.80;99.90;;;;;;4999483;28;20076;-83
2022/10/22 01:35:42;;;;;;;17.77;11.70;;;11.80;99.90;;;;;;4972806;28;20038;-83
2022/10/22 01:38:12;;;;;;;18.05;10.30;;;11.70;99.90;;;;;;5005688;28;20145;-82
2022/10/22 01:40:39;;;;;;;14.98;10.18;;;11.70;99.90;;;;;;5008235;28;20537;-83
2022/10/22 01:43:08;;;;;;;17.73;11.30;;;11.80;99.90;;;;;;5024501;28;20041;-83
2022/10/22 01:45:37;;;;;;;19.40;11.68;;;11.80;99.90;;;;;;4991525;28;20574;-85
2022/10/22 01:48:06;;;;;;;16.48;10.13;;;11.80;99.90;;;;;;4987604;28;20053;-83
2022/10/22 01:50:54;;;;;;;16.50;10.93;;;11.70;99.90;;;;;;4996442;28;20052;-84
2022/10/22 01:53:57;;;;;;;17.02;11.55;;;11.80;99.90;;;;;;4988233;28;20173;-83
2022/10/22 01:56:39;;;;;;;16.13;9.82;;;11.80;99.90;;;;;;4998230;28;20045;-83
2022/10/22 01:59:14;;;;;;;14.52;10.38;;;11.90;99.90;;;;;;5024798;28;20568;-83
2022/10/22 02:01:45;;;;;;;14.73;9.63;;;11.90;99.90;;;;;;4985505;28;20034;-81
2022/10/22 02:04:27;;;;;;;17.58;10.57;;;11.90;99.90;;;;;;4988044;28;20034;-82
2022/10/22 02:06:58;;;;;;;17.25;10.38;;;11.90;99.90;;;;;;5007720;28;20018;-81
2022/10/22 02:09:26;;;;;;;18.27;10.18;;;11.90;99.90;;;;;;5000261;28;20030;-83
2022/10/22 02:11:53;;;;;;;16.52;9.73;;;11.90;99.90;;;;;;5001043;28;20065;-83
2022/10/22 02:14:19;;;;;;;14.18;8.95;;;11.90;99.90;;;;;;4968580;28;20053;-81
2022/10/22 02:16:48;;;;;;;15.77;9.52;;;11.90;99.90;;;;;;4998444;28;20042;-81
2022/10/22 02:19:34;;;;;;;16.98;9.18;;;12.00;99.90;;;;;;4954119;28;20133;-84
2022/10/22 02:22:00;;;;;;;16.73;9.98;;;12.10;99.90;;;;;;4987460;28;20053;-83
2022/10/22 02:24:26;;;;;;;13.60;8.68;;;12.10;99.90;;;;;;4988008;28;20497;-83
2022/10/22 02:27:15;;;;;;;15.15;9.93;;;12.10;99.90;;;;;;4978101;28;20109;-83
2022/10/22 02:29:54;;;;;;;13.27;9.45;;;12.00;99.90;;;;;;4972933;28;20041;-85
2022/10/22 02:32:25;;;;;;;14.73;8.60;;;12.10;99.90;;;;;;4985845;28;20030;-83
2022/10/22 02:34:53;;;;;;;14.93;9.35;;;12.10;99.90;;;;;;5003629;28;20062;-84
2022/10/22 02:37:20;;;;;;;14.45;9.07;;;12.00;99.90;;;;;;4971571;28;20121;-84
2022/10/22 02:39:47;;;;;;;13.95;8.93;;;12.10;99.90;;;;;;4987663;28;20030;-81
2022/10/22 02:42:13;;;;;;;14.20;9.05;;;12.10;99.90;;;;;;4973618;28;20470;-83
2022/10/22 02:44:39;;;;;;;13.90;9.23;;;12.10;99.90;;;;;;4988794;28;20041;-83
2022/10/22 02:47:05;;;;;;;16.60;8.82;;;12.00;99.90;;;;;;4954710;28;20440;-83
2022/10/22 02:49:30;;;;;;;12.48;8.82;;;12.00;99.90;;;;;;4971368;28;20042;-83
2022/10/22 02:51:56;;;;;;;11.45;8.43;;;12.00;99.90;;;;;;4983029;28;20101;-84
2022/10/22 02:54:22;;;;;;;11.63;7.97;;;12.00;99.90;;;;;;4987262;28;20043;-82
2022/10/22 02:56:48;;;;;;;20.42;9.18;;;12.00;99.90;;;;;;4976463;28;20125;-83
2022/10/22 02:59:13;;;;;;;11.05;7.63;;;12.00;99.90;;;;;;4989508;28;20026;-84
2022/10/22 03:01:39;;;;;;;12.52;7.03;;;12.00;99.90;;;;;;4975461;28;20031;-84
2022/10/22 03:04:05;;;;;;;10.00;7.55;;;12.00;99.90;;;;;;4978466;28;20038;-82
2022/10/22 03:06:31;;;;;;;11.25;7.00;;;12.10;99.90;;;;;;4990747;28;20034;-82
2022/10/22 03:08:57;;;;;;;10.35;6.10;;;12.10;99.90;;;;;;4975691;28;20038;-83
2022/10/22 03:11:23;;;;;;;7.80;5.20;;;12.10;99.90;;;;;;4986417;28;20026;-83
2022/10/22 03:13:49;;;;;;;8.63;5.05;;;12.10;99.90;;;;;;4994616;28;20056;-82
2022/10/22 03:16:14;;;;;;;6.18;4.40;;;12.10;99.90;;;;;;4965378;28;20125;-82
2022/10/22 03:18:40;;;;;;;6.07;4.43;;;12.20;99.90;;;;;;4991664;28;20034;-84
2022/10/22 03:21:31;;;;;;;5.95;4.40;;;12.20;99.90;;;;;;4985420;28;20049;-84
2022/10/22 03:24:00;;;;;;;7.03;4.20;;;12.20;99.90;;;;;;4987831;28;20035;-83
2022/10/22 03:26:26;;;;;;;6.15;3.90;;;12.20;99.90;;;;;;4966104;28;20089;-82
2022/10/22 03:28:53;;;;;;;8.00;4.22;;;12.20;99.90;;;;;;4991542;28;20101;-82
2022/10/22 03:31:18;;;;;;;6.20;3.50;;;12.30;99.90;;;;;;4999260;28;20034;-83
2022/10/22 03:33:44;;;;;;;7.18;3.65;;;12.30;99.90;;;;;;4986174;28;20045;-83
2022/10/22 03:36:10;;;;;;;6.03;3.78;;;12.30;99.90;;;;;;4962124;28;20044;-82
2022/10/22 03:38:38;;;;;;;7.10;3.83;;;12.30;99.90;;;;;;4963660;28;20042;-82
2022/10/22 03:41:04;;;;;;;4.95;3.38;;;12.30;99.90;;;;;;4972408;28;20030;-82
2022/10/22 03:43:30;;;;;;;5.00;3.38;;;12.30;99.90;;;;;;4987575;28;20082;-83
2022/10/22 03:45:55;;;;;;;6.90;3.78;;;12.30;99.90;;;;;;4997158;28;20034;-83
2022/10/22 03:48:21;;;;;;;4.05;3.03;;;12.30;99.90;;;;;;4966199;28;20629;-84
2022/10/22 03:50:48;;;;;;;3.38;2.72;;;12.30;99.90;;;;;;5012385;28;20034;-83
2022/10/22 03:53:14;;;;;;;5.07;3.15;;;12.30;99.90;;;;;;4974411;28;20041;-83
2022/10/22 03:55:40;;;;;;;3.20;2.75;;;12.20;99.90;;;;;;4962386;28;20619;-84
2022/10/22 03:58:06;;;;;;;3.35;3.05;;;12.30;99.90;;;;;;4979421;28;20180;-82
2022/10/22 04:00:33;;;;;;;3.05;2.75;;;12.20;99.90;;;;;;4975565;28;20066;-83
2022/10/22 04:02:59;;;;;;;6.78;2.90;;;12.20;99.90;;;;;;5006623;28;20031;-83
2022/10/22 04:05:25;;;;;;;5.47;3.28;;;12.20;99.90;;;;;;4990808;28;20026;-82
2022/10/22 04:07:51;;;;;;;5.50;3.00;;;12.30;99.90;;;;;;5007073;28;20113;-83
2022/10/22 04:10:17;;;;;;;5.30;2.67;;;12.30;99.90;;;;;;5004890;28;20563;-82
2022/10/22 04:12:45;;;;;;;8.55;2.78;;;12.30;99.90;;;;;;5006407;28;20125;-82
2022/10/22 04:15:11;;;;;;;7.57;2.70;;;12.20;99.90;;;;;;4958145;28;20552;-82
2022/10/22 04:17:36;;;;;;;6.63;2.90;;;12.20;99.90;;;;;;4990579;28;20121;-84
2022/10/22 04:20:03;;;;;;;5.63;2.35;;;12.20;99.90;;;;;;4958127;28;20554;-84
2022/10/22 04:22:31;;;;;;;21.27;3.63;;;12.20;99.90;;;;;;4958772;28;20038;-83
2022/10/22 04:24:57;;;;;;;17.65;3.63;;;12.20;99.90;;;;;;4970624;28;20027;-82
2022/10/22 04:27:23;;;;;;;22.60;3.72;;;12.30;99.90;;;;;;5016991;28;20112;-84
2022/10/22 04:29:48;;;;;;;31.33;4.03;;;12.30;99.90;;;;;;4973770;28;20034;-84
2022/10/22 04:32:14;;;;;;;85.35;7.22;;;12.30;99.90;;;;;;5002866;28;20061;-82
2022/10/22 04:34:40;;;;;;;7.55;2.67;;;12.30;99.90;;;;;;4967418;28;20113;-84
2022/10/22 04:37:05;;;;;;;44.05;5.18;;;12.30;99.90;;;;;;4959606;28;20045;-81
2022/10/22 04:39:31;;;;;;;34.63;2.90;;;12.30;99.90;;;;;;4972364;28;20114;-84
2022/10/22 04:41:57;;;;;;;4.60;2.33;;;12.30;99.90;;;;;;4998898;28;20041;-84
2022/10/22 04:44:22;;;;;;;3.40;2.13;;;12.30;99.90;;;;;;5010967;28;20054;-83
2022/10/22 04:46:48;;;;;;;7.63;2.10;;;12.30;99.90;;;;;;4971259;28;20034;-82
2022/10/22 04:49:14;;;;;;;5.22;2.15;;;12.30;99.90;;;;;;4993239;28;20042;-83
2022/10/22 04:51:40;;;;;;;2.65;1.92;;;12.30;99.90;;;;;;5003309;28;20045;-81
2022/10/22 04:54:05;;;;;;;36.28;3.78;;;12.20;99.90;;;;;;4956984;28;20046;-83
2022/10/22 04:56:32;;;;;;;6.65;1.83;;;12.20;99.90;;;;;;4978441;28;20038;-84
2022/10/22 04:59:00;;;;;;;5.35;1.75;;;12.20;99.90;;;;;;4989484;28;20029;-83
2022/10/22 05:01:27;;;;;;;20.92;2.58;;;12.30;99.90;;;;;;4999250;28;20102;-85
2022/10/22 05:03:55;;;;;;;49.65;5.50;;;12.20;99.90;;;;;;5007647;28;20037;-84
2022/10/22 05:06:22;;;;;;;3.78;1.52;;;12.20;99.90;;;;;;4998980;28;20030;-83
2022/10/22 05:08:56;;;;;;;4.25;1.70;;;12.20;99.90;;;;;;5008284;28;20018;-84
2022/10/22 05:11:26;;;;;;;3.65;1.60;;;12.20;99.90;;;;;;4996563;28;20026;-83
2022/10/22 05:13:53;;;;;;;3.17;1.95;;;12.20;99.90;;;;;;4988974;28;20121;-84
2022/10/22 05:16:19;;;;;;;2.45;1.50;;;12.20;99.90;;;;;;4982417;28;20084;-82
2022/10/22 05:18:45;;;;;;;9.38;1.75;;;12.10;99.90;;;;;;4978595;28;20035;-82
2022/10/22 05:21:16;;;;;;;24.50;2.90;;;12.10;99.90;;;;;;4973500;28;20034;-83
2022/10/22 05:23:44;;;;;;;6.65;2.10;;;12.10;99.90;;;;;;4972985;28;20670;-86
2022/10/22 05:26:11;;;;;;;36.58;2.88;;;12.20;99.90;;;;;;4973263;28;20169;-83
2022/10/22 05:28:38;;;;;;;12.63;1.88;;;12.10;99.90;;;;;;4986425;28;20031;-83
2022/10/22 05:31:05;;;;;;;11.48;2.05;;;12.20;99.90;;;;;;4961864;28;20436;-83
2022/10/22 05:33:32;;;;;;;1.50;1.20;;;12.20;99.90;;;;;;4982482;28;20033;-82
2022/10/22 05:35:58;;;;;;;19.45;4.47;;;12.10;99.90;;;;;;4971589;28;20088;-84
2022/10/22 05:38:24;;;;;;;6.07;2.10;;;12.10;99.90;;;;;;4988494;28;20022;-82
2022/10/22 05:41:00;;;;;;;4.38;1.63;;;12.00;99.90;;;;;;4988420;28;20030;-84
2022/10/22 05:43:26;;;;;;;3.88;1.50;;;12.00;99.90;;;;;;4974932;28;20041;-84
2022/10/22 05:45:52;;;;;;;2.45;1.63;;;12.00;99.90;;;;;;4990334;28;20023;-83
2022/10/22 05:48:17;;;;;;;4.05;1.70;;;11.90;99.90;;;;;;4965317;28;20052;-86
2022/10/22 05:50:45;;;;;;;2.92;1.50;;;11.90;99.90;;;;;;4987756;28;20034;-84
2022/10/22 05:53:10;;;;;;;1.65;1.52;;;11.90;99.90;;;;;;4969897;28;20045;-82
2022/10/22 05:55:39;;;;;;;2.05;1.77;;;11.90;99.90;;;;;;4988647;28;20034;-83
2022/10/22 05:58:05;;;;;;;2.20;1.63;;;11.90;99.90;;;;;;4995714;28;20089;-82
2022/10/22 06:00:31;;;;;;;3.03;1.80;;;11.90;99.90;;;;;;4985557;28;20407;-83
2022/10/22 06:02:56;;;;;;;2.58;1.55;;;11.90;99.90;;;;;;4988042;28;20038;-83
2022/10/22 06:05:22;;;;;;;2.10;1.50;;;11.90;99.90;;;;;;4972271;28;20667;-84
2022/10/22 06:07:48;;;;;;;2.25;1.58;;;11.90;99.90;;;;;;4934215;28;20054;-84
2022/10/22 06:10:16;;;;;;;1.75;1.63;;;11.90;99.90;;;;;;4969378;28;21269;-83
2022/10/22 06:12:42;;;;;;;1.60;1.42;;;11.90;99.90;;;;;;4999980;28;20097;-83
2022/10/22 06:15:10;;;;;;;3.55;1.60;;;11.90;99.90;;;;;;4951050;28;20046;-82
2022/10/22 06:17:36;;;;;;;1.95;1.60;;;11.90;99.90;;;;;;4952510;28;20615;-84
2022/10/22 06:20:02;;;;;;;5.03;1.65;;;11.90;99.90;;;;;;4943339;28;20124;-83
2022/10/22 06:22:28;;;;;;;2.17;1.50;;;11.90;99.90;;;;;;4977785;28;20022;-83
2022/10/22 06:24:53;;;;;;;3.55;1.50;;;11.90;99.90;;;;;;4958903;28;20038;-83
2022/10/22 06:27:19;;;;;;;2.78;1.80;;;11.90;99.90;;;;;;4987466;28;20529;-83
2022/10/22 06:29:46;;;;;;;2.83;1.40;;;11.90;99.90;;;;;;4988052;28;20038;-80
2022/10/22 06:32:12;;;;;;;1.73;1.48;;;12.00;99.90;;;;;;4987970;28;20042;-82
2022/10/22 06:34:38;;;;;;;2.75;1.73;;;12.00;99.90;;;;;;4988362;28;20050;-80
2022/10/22 06:37:04;;;;;;;1.52;1.42;;;12.00;99.90;;;;;;4994922;28;20113;-80
2022/10/22 06:39:30;;;;;;;5.00;1.67;;;12.10;99.90;;;;;;4992688;28;20148;-83
2022/10/22 06:41:55;;;;;;;3.13;1.55;;;12.10;99.90;;;;;;4972191;28;20041;-86
2022/10/22 06:44:21;;;;;;;1.80;1.60;;;12.10;99.90;;;;;;5004007;28;20037;-82
2022/10/22 06:46:51;;;;;;;1.73;1.52;;;12.10;99.90;;;;;;5006322;28;20034;-80
2022/10/22 06:49:18;;;;;;;1.60;1.50;;;12.10;99.90;;;;;;5003399;28;20038;-81
2022/10/22 06:51:48;;;;;;;2.03;1.65;;;12.10;99.90;;;;;;4971890;28;20140;-81
2022/10/22 06:54:13;;;;;;;1.45;1.35;;;12.10;99.90;;;;;;5003312;28;20035;-82
2022/10/22 06:56:39;;;;;;;1.40;1.30;;;12.10;99.90;;;;;;4988967;28;20105;-84
2022/10/22 06:59:05;;;;;;;4.18;1.80;;;12.10;99.90;;;;;;4988736;28;20061;-83
2022/10/22 07:01:34;;;;;;;3.42;1.52;;;12.10;99.90;;;;;;4971181;28;20026;-83
2022/10/22 07:04:01;;;;;;;1.75;1.20;;;12.10;99.90;;;;;;4997733;28;20038;-80
2022/10/22 07:06:28;;;;;;;2.10;1.23;;;12.20;99.90;;;;;;4973660;28;20054;-83
2022/10/22 07:08:56;;;;;;;8.25;1.48;;;12.20;99.90;;;;;;4987895;28;20080;-80
2022/10/22 07:11:24;;;;;;;3.22;1.20;;;12.20;99.90;;;;;;5004412;28;20098;-81
2022/10/22 07:13:50;;;;;;;4.25;1.30;;;12.20;99.90;;;;;;4965665;28;20097;-81
2022/10/22 07:16:17;;;;;;;2.28;1.17;;;12.30;99.90;;;;;;4988670;28;20034;-84
2022/10/22 07:18:44;;;;;;;3.42;1.40;;;12.30;99.90;;;;;;4971947;28;20030;-83
2022/10/22 07:21:11;;;;;;;4.07;1.02;;;12.20;99.90;;;;;;4964043;28;20462;-80
2022/10/22 07:23:37;;;;;;;4.57;1.45;;;12.20;99.90;;;;;;4996804;28;20027;-81
2022/10/22 07:26:07;;;;;;;2.05;1.40;;;12.10;99.90;;;;;;4976368;28;20046;-84
2022/10/22 07:28:36;;;;;;;2.95;1.38;;;12.10;99.90;;;;;;4989753;28;20069;-81
2022/10/22 07:31:02;;;;;;;18.95;3.83;;;12.10;99.90;;;;;;4972112;28;20180;-81
2022/10/22 07:33:28;;;;;;;6.57;1.52;;;12.10;99.90;;;;;;5005750;28;20184;-84
2022/10/22 07:35:59;;;;;;;1.90;1.30;;;12.10;99.90;;;;;;5003314;28;20602;-83
2022/10/22 07:38:25;;;;;;;1.70;1.10;;;12.00;99.90;;;;;;5002365;28;20337;-85
2022/10/22 07:40:51;;;;;;;1.08;0.95;;;12.00;99.90;;;;;;4988364;28;20074;-84
2022/10/22 07:43:16;;;;;;;1.98;1.60;;;12.10;99.90;;;;;;4934358;28;20202;-84
2022/10/22 07:45:42;;;;;;;3.17;1.25;;;12.10;99.90;;;;;;4969792;28;20040;-84
2022/10/22 07:48:08;;;;;;;1.42;1.15;;;12.10;99.90;;;;;;4936019;28;20072;-84
2022/10/22 07:50:34;;;;;;;4.38;1.30;;;12.20;99.90;;;;;;4973882;28;20057;-84
2022/10/22 07:52:59;;;;;;;3.00;1.45;;;12.10;99.90;;;;;;4960897;28;20459;-87
2022/10/22 07:55:25;;;;;;;3.65;1.83;;;12.10;99.90;;;;;;4975299;28;20069;-85
2022/10/22 07:57:51;;;;;;;1.83;1.50;;;12.10;99.90;;;;;;4951253;28;20560;-83
2022/10/22 08:00:17;;;;;;;4.78;2.03;;;12.20;99.90;;;;;;4934611;28;20062;-84
2022/10/22 08:02:44;;;;;;;2.67;1.40;;;12.50;99.90;;;;;;5004745;28;20080;-84
2022/10/22 08:05:12;;;;;;;4.55;1.55;;;12.70;99.90;;;;;;4967752;28;20038;-85
2022/10/22 08:07:38;;;;;;;2.65;1.42;;;12.90;99.90;;;;;;4992922;28;20030;-82
2022/10/22 08:10:09;;;;;;;3.60;1.50;;;12.90;99.90;;;;;;4965748;28;20030;-83
2022/10/22 08:12:36;;;;;;;3.88;1.58;;;12.80;99.90;;;;;;4972350;28;20037;-83
2022/10/22 08:15:02;;;;;;;1.73;1.38;;;12.80;99.90;;;;;;4973014;28;20030;-82
2022/10/22 08:17:28;;;;;;;4.10;1.50;;;12.90;99.90;;;;;;4998079;28;20045;-82
2022/10/22 08:19:53;;;;;;;3.05;1.80;;;12.90;99.90;;;;;;4989174;28;20027;-85
2022/10/22 08:22:19;;;;;;;1.77;1.67;;;12.90;99.90;;;;;;4987389;28;20034;-83
2022/10/22 08:24:45;;;;;;;8.23;1.65;;;12.90;99.90;;;;;;4991303;28;20463;-82
2022/10/22 08:27:12;;;;;;;5.53;1.63;;;12.90;99.90;;;;;;5006506;28;20066;-81
2022/10/22 08:29:37;;;;;;;2.38;1.50;;;13.00;99.90;;;;;;5008274;28;20034;-83
2022/10/22 08:32:03;;;;;;;1.67;1.55;;;13.00;99.90;;;;;;4997795;28;20034;-80
2022/10/22 08:34:30;;;;;;;1.73;1.45;;;13.00;99.90;;;;;;4990728;28;20034;-80
2022/10/22 08:36:57;;;;;;;2.17;1.60;;;12.90;99.90;;;;;;4991720;28;20038;-81
2022/10/22 08:39:22;;;;;;;2.13;1.83;;;12.90;99.90;;;;;;5008381;28;20030;-82
2022/10/22 08:42:30;;;;;;;3.70;2.25;;;13.00;99.90;;;;;;4975351;28;20052;-84
2022/10/22 08:45:24;;;;;;;2.10;1.70;;;13.10;99.90;;;;;;4940935;28;20077;-82
2022/10/22 08:48:03;;;;;;;2.10;1.63;;;13.30;99.90;;;;;;4988843;28;20113;-84
2022/10/22 08:50:44;;;;;;;2.00;1.42;;;13.40;99.90;;;;;;5009776;28;20026;-82
2022/10/22 08:53:21;;;;;;;1.90;1.73;;;13.50;99.90;;;;;;4950167;28;20034;-81
2022/10/22 08:55:48;;;;;;;3.08;1.73;;;13.50;99.90;;;;;;5007002;28;20121;-82
2022/10/22 08:58:21;;;;;;;2.00;1.77;;;13.60;99.90;;;;;;4950317;28;20034;-81
2022/10/22 09:00:57;;;;;;;3.47;1.70;;;13.60;99.90;;;;;;4974973;28;20062;-82
2022/10/22 09:03:41;;;;;;;2.47;1.58;;;13.70;99.90;;;;;;4968701;28;20025;-81
2022/10/22 09:06:13;;;;;;;4.40;1.88;;;13.60;99.90;;;;;;5007388;28;20058;-84
2022/10/22 09:08:41;;;;;;;2.20;2.00;;;13.70;99.90;;;;;;4971637;28;20125;-84
2022/10/22 09:11:20;;;;;;;2.17;1.98;;;13.80;99.90;;;;;;4985067;28;20038;-83
2022/10/22 09:13:47;;;;;;;2.75;2.17;;;13.80;99.90;;;;;;4986023;28;20113;-85
2022/10/22 09:16:20;;;;;;;6.13;4.07;;;13.90;99.90;;;;;;4989622;28;20031;-84
2022/10/22 09:19:01;;;;;;;11.95;6.95;;;13.90;99.90;;;;;;4988323;28;20633;-81
2022/10/22 09:21:56;;;;;;;3.72;2.45;;;14.00;99.90;;;;;;4987746;28;20030;-82
2022/10/22 09:24:35;;;;;;;1.98;1.88;;;14.00;99.90;;;;;;4981846;28;20046;-84
2022/10/22 09:27:15;;;;;;;2.67;1.92;;;13.90;99.90;;;;;;4999326;28;20088;-84
2022/10/22 09:29:43;;;;;;;2.13;2.03;;;13.90;99.90;;;;;;4999412;28;20408;-84
2022/10/22 09:32:08;;;;;;;2.35;2.20;;;13.90;99.90;;;;;;4950274;28;20383;-83
2022/10/22 09:34:34;;;;;;;2.30;2.10;;;13.90;99.90;;;;;;4978870;28;20030;-83
2022/10/22 09:37:06;;;;;;;2.50;2.30;;;13.90;99.90;;;;;;4990523;28;20673;-84
2022/10/22 09:39:38;;;;;;;3.22;1.90;;;13.90;99.90;;;;;;4986504;28;20471;-83
2022/10/22 09:42:05;;;;;;;2.30;2.10;;;13.80;99.90;;;;;;4989434;28;20034;-84
2022/10/22 09:44:34;;;;;;;1.88;1.77;;;13.80;99.90;;;;;;4968905;28;20436;-83
2022/10/22 09:47:25;;;;;;;2.70;1.88;;;13.80;99.90;;;;;;4990323;28;20065;-86
2022/10/22 09:50:05;;;;;;;4.82;1.80;;;13.70;99.90;;;;;;4984034;28;20045;-81
2022/10/22 09:52:33;;;;;;;2.78;2.10;;;13.80;99.90;;;;;;4980984;28;20069;-81
2022/10/22 09:55:01;;;;;;;2.10;2.00;;;13.80;99.90;;;;;;4966257;28;20452;-83
2022/10/22 09:57:28;;;;;;;2.83;1.75;;;13.70;99.90;;;;;;4973967;28;20038;-86
2022/10/22 09:59:56;;;;;;;4.20;1.73;;;13.80;99.90;;;;;;5008454;28;20022;-81
2022/10/22 10:02:28;;;;;;;5.18;1.95;;;13.80;99.90;;;;;;4960555;28;20057;-83
2022/10/22 10:04:56;;;;;;;2.72;1.90;;;13.90;99.90;;;;;;4955908;28;20133;-84
2022/10/22 10:07:29;;;;;;;2.00;1.75;;;14.00;99.90;;;;;;4972399;28;20022;-84
2022/10/22 10:09:55;;;;;;;2.45;1.88;;;14.10;99.90;;;;;;4990090;28;20038;-83
2022/10/22 10:12:27;;;;;;;2.97;2.00;;;14.20;99.90;;;;;;4980885;28;20039;-82
2022/10/22 10:15:08;;;;;;;2.28;2.10;;;14.30;99.90;;;;;;5002068;28;20395;-85
2022/10/22 10:18:01;;;;;;;2.03;1.90;;;14.40;99.90;;;;;;4968367;28;20062;-82
2022/10/22 10:20:32;;;;;;;2.00;1.90;;;14.50;99.90;;;;;;4987953;28;20034;-81
2022/10/22 10:23:19;;;;;;;2.85;1.80;;;14.50;99.90;;;;;;4976934;28;20030;-81
2022/10/22 10:26:10;;;;;;;1.60;1.50;;;14.60;99.90;;;;;;4976776;28;20058;-81
2022/10/22 10:29:10;;;;;;;3.33;2.15;;;14.60;99.90;;;;;;5001029;28;20517;-83
2022/10/22 10:31:58;;;;;;;2.53;2.10;;;14.70;99.90;;;;;;4996621;28;20076;-81
2022/10/22 10:34:34;;;;;;;2.83;2.00;;;14.80;99.90;;;;;;5000271;28;20034;-85
2022/10/22 10:37:23;;;;;;;2.20;2.10;;;14.90;99.90;;;;;;5005222;28;20438;-87
2022/10/22 10:40:13;;;;;;;5.68;2.95;;;14.90;99.90;;;;;;4981981;28;20027;-83
2022/10/22 10:42:50;;;;;;;1.50;1.40;;;14.90;99.90;;;;;;4968373;28;20026;-83
2022/10/22 10:45:24;;;;;;;1.67;1.58;;;14.80;99.90;;;;;;4985024;28;20030;-82
2022/10/22 10:48:21;;;;;;;2.97;1.77;;;14.80;99.90;;;;;;5000513;28;20049;-83
2022/10/22 10:50:50;;;;;;;2.35;2.00;;;14.80;99.90;;;;;;4990403;28;20049;-83
2022/10/22 10:53:43;;;;;;;2.05;1.95;;;14.70;99.90;;;;;;5006648;28;20045;-83
2022/10/22 10:56:31;;;;;;;3.83;2.10;;;14.70;99.90;;;;;;4978268;28;20461;-82
2022/10/22 10:59:12;;;;;;;2.50;1.90;;;14.70;99.90;;;;;;4989322;28;20106;-84
2022/10/22 11:01:49;;;;;;;2.13;1.92;;;14.60;99.90;;;;;;4992269;28;20026;-82
2022/10/22 11:04:45;;;;;;;2.20;2.10;;;14.60;99.90;;;;;;4979832;28;20033;-81
2022/10/22 11:07:21;;;;;;;3.10;2.38;;;14.60;99.90;;;;;;4979372;28;20062;-83
2022/10/22 11:09:55;;;;;;;3.00;2.70;;;14.50;99.90;;;;;;4985956;28;20041;-82
2022/10/22 11:12:29;;;;;;;6.05;3.03;;;14.60;99.90;;;;;;4994855;28;20034;-81
2022/10/22 11:15:05;;;;;;;3.13;2.83;;;14.60;99.90;;;;;;4952138;28;20066;-82
2022/10/22 11:17:41;;;;;;;4.18;3.10;;;14.70;99.90;;;;;;4986537;28;20032;-82
2022/10/22 11:20:18;;;;;;;;;;;14.60;99.90;;;;;;4978447;28;20101;-83
2022/10/22 11:23:08;;;;;;;3.75;3.33;;;14.60;99.90;;;;;;4972694;28;20076;-83
2022/10/22 11:25:51;;;;;;;3.20;2.97;;;14.60;99.90;;;;;;5004099;28;20026;-81
2022/10/22 11:28:24;;;;;;;3.28;3.08;;;14.60;99.90;;;;;;5005209;28;20562;-83
2022/10/22 11:31:04;;;;;;;3.70;3.40;;;14.60;99.90;;;;;;4965257;28;20113;-82
2022/10/22 11:33:41;;;;;;;4.65;3.70;;;14.60;99.90;;;;;;4979973;28;20121;-84
2022/10/22 11:36:09;;;;;;;3.65;3.35;;;14.60;99.90;;;;;;4990022;28;20702;-82
2022/10/22 11:38:35;;;;;;;4.05;3.55;;;14.70;99.90;;;;;;4977260;28;20027;-83
2022/10/22 11:41:04;;;;;;;3.83;3.38;;;14.70;99.90;;;;;;4956789;28;20034;-83
2022/10/22 11:43:34;;;;;;;3.75;3.45;;;14.70;99.90;;;;;;4986235;28;20030;-83
2022/10/22 11:46:20;;;;;;;4.03;3.63;;;14.70;99.90;;;;;;4993938;28;20030;-82
2022/10/22 11:49:00;;;;;;;;;;;14.70;99.90;;;;;;4981790;28;20042;-81
2022/10/22 11:51:32;;;;;;;6.03;3.13;;;14.70;99.90;;;;;;4994704;28;19914;-83
2022/10/22 11:54:13;;;;;;;4.57;2.90;;;14.90;99.90;;;;;;4968761;28;20022;-83
2022/10/22 11:56:39;;;;;;;5.28;3.05;;;14.90;99.90;;;;;;4986458;28;20098;-83
2022/10/22 11:59:46;;;;;;;3.22;2.92;;;14.90;99.90;;;;;;4940138;28;20121;-82
2022/10/22 12:02:28;;;;;;;2.75;2.55;;;14.90;99.90;;;;;;5004891;28;20026;-82
2022/10/22 12:05:23;;;;;;;2.53;2.30;;;14.80;99.90;;;;;;4988742;28;20186;-82
2022/10/22 12:07:55;;;;;;;4.10;2.35;;;14.70;99.90;;;;;;5003841;28;20034;-82
2022/10/22 12:10:26;;;;;;;2.75;2.28;;;14.60;99.90;;;;;;4967977;28;20038;-82
2022/10/22 12:12:56;;;;;;;3.70;3.00;;;14.60;99.90;;;;;;4984299;28;20033;-85
2022/10/22 12:15:26;;;;;;;2.30;2.10;;;14.60;99.90;;;;;;4983618;28;20662;-82
2022/10/22 12:17:59;;;;;;;5.53;2.13;;;14.70;99.90;;;;;;5002890;28;20128;-81
2022/10/22 12:20:26;;;;;;;6.35;2.80;;;14.70;99.90;;;;;;4967287;28;20030;-83
2022/10/22 12:22:52;;;;;;;7.03;2.10;;;14.70;99.90;;;;;;4986405;28;20555;-82
2022/10/22 12:25:22;;;;;;;2.80;2.03;;;14.80;99.90;;;;;;4997268;28;20403;-83
2022/10/22 12:27:53;;;;;;;5.10;2.15;;;14.90;99.90;;;;;;4999187;28;20105;-82
2022/10/22 12:30:23;;;;;;;5.90;2.65;;;14.90;99.90;;;;;;4965077;28;20038;-84
2022/10/22 12:32:55;;;;;;;2.33;2.13;;;15.00;99.90;;;;;;4982034;28;20104;-83
2022/10/22 12:35:25;;;;;;;2.05;1.85;;;15.10;99.90;;;;;;4986402;28;20035;-84
2022/10/22 12:37:54;;;;;;;4.43;2.10;;;15.30;99.90;;;;;;4983763;28;20045;-81
2022/10/22 12:40:22;;;;;;;3.28;1.70;;;15.20;99.90;;;;;;4968915;28;20034;-82
2022/10/22 12:42:50;;;;;;;2.50;1.75;;;15.20;99.90;;;;;;4982117;28;20113;-84
2022/10/22 12:45:16;;;;;;;3.45;1.95;;;15.10;99.90;;;;;;4986365;28;20709;-81
2022/10/22 12:47:54;;;;;;;2.30;1.70;;;15.20;99.90;;;;;;4986621;28;20045;-80
2022/10/22 12:50:28;;;;;;;2.70;1.75;;;15.20;99.90;;;;;;5002762;28;20038;-82
2022/10/22 12:52:54;;;;;;;2.47;2.05;;;15.20;99.90;;;;;;4966767;28;20038;-82
2022/10/22 12:55:24;;;;;;;1.80;1.70;;;15.30;99.90;;;;;;4965961;28;20502;-82
2022/10/22 12:57:51;;;;;;;2.28;1.55;;;15.30;99.90;;;;;;4985890;28;20033;-81
2022/10/22 13:00:24;;;;;;;1.80;1.60;;;15.40;99.90;;;;;;4974210;28;20114;-82